Latest Coastal Weather Observations for Yamba

IDN60701

Issued at 10:15 pm EST Saturday 19 April 2014 (issued every 10 minutes, with the page automatically refreshed every 10 minutes)

About coastal observations | Map of coastal stations | Coastal observations for NSW | Marine services | Other Formats
Station Details ID: 058012 Name: YAMBA PILOT STATION Lat: -29.43 Lon: 153.36 Height: 27.4 m
Data from the previous 72 hours. | See also: Recent months at Yamba
Date/Time
EST
Temp

°C
Wind Pressure Rain
since 9am
mm
Weather Cloud Vis
km
Sea
Height
m
Swell
Dir
 
Speed
knots
Gust
knots
hPa Trend Height
m
Period
s
Dir
19/10:00pm 22.2 ESE 6 9 1016.5 - 0.0 - - - - - - -
19/09:30pm 22.4 E 6 8 1016.6 - 0.0 - - - - - - -
19/09:00pm 22.4 ESE 6 8 1016.3 - 0.0 - - - - - - -
19/08:30pm 22.4 ESE 6 9 1016.3 - 0.0 - - - - - - -
19/08:00pm 22.3 ESE 6 8 1016.1 - 0.0 - - - - - - -
19/07:30pm 22.1 ESE 6 8 1015.8 - 0.0 - - - - - - -
19/07:00pm 22.3 ESE 7 11 1015.3 - 0.0 - - - - - - -
19/06:30pm 22.4 ESE 8 11 1014.7 - 0.0 - - - - - - -
19/06:00pm 22.5 E 7 9 1014.4 - 0.0 - - - - - - -
19/05:30pm 22.4 E 7 9 1014.2 - 0.0 - - - - - - -
19/05:00pm 22.5 ESE 7 9 1013.9 - 0.0 - - - - - - -
19/04:30pm 23.2 ESE 7 10 1013.6 - 0.0 - - - - - - -
19/04:00pm 23.6 ESE 6 9 1013.4 - 0.0 - - - - - - -
19/03:30pm 23.8 ESE 7 9 1013.5 - 0.0 - - - - - - -
19/03:00pm 24.0 ESE 8 11 1013.5 R 0.0 Fine Clear 40 3 2.0 10 SE
19/02:30pm 24.2 SE 10 12 1013.5 - 0.0 - - - - - - -
19/02:00pm 24.3 ESE 9 11 1013.6 - 0.0 - - - - - - -
19/01:30pm 24.5 ESE 10 13 1013.8 - 0.0 - - - - - - -
19/01:00pm 24.5 SE 10 13 1014.1 - 0.0 - - - - - - -
19/12:30pm 24.9 SSE 7 11 1014.6 - 0.0 - - - - - - -
19/12:00pm 25.0 SSW 6 9 1014.6 - 0.0 - - - - - - -
19/11:30am 24.5 SSW 6 9 1015.3 - 0.0 - - - - - - -
19/11:00am 23.9 WSW 5 9 1015.8 - 0.0 - - - - - - -
19/10:30am 23.0 SW 5 8 1016.0 - 0.0 - - - - - - -
19/10:00am 22.2 WSW 6 11 1016.3 - 0.0 - - - - - - -
19/09:30am 20.6 WSW 8 14 1016.4 - 0.0 - - - - - - -
19/09:00am 19.5 SW 6 10 1016.4 F 0.0 Fine Clear 40 3 2.0 10 SE
19/08:30am 18.2 WSW 6 10 1016.6 - 0.0 - - - - - - -
19/08:00am 17.2 WSW 6 10 1016.6 - 0.0 - - - - - - -
19/07:30am 15.9 WSW 6 12 1016.5 - 0.0 - - - - - - -
19/07:00am 14.8 WSW 6 8 1016.3 - 0.0 - - - - - - -
19/06:30am 14.3 W 6 9 1016.0 - 0.0 - - - - - - -
19/06:00am 14.3 W 7 10 1015.6 - 0.0 - - - - - - -
19/05:30am 14.5 W 7 9 1015.6 - 0.0 - - - - - - -
19/05:00am 14.7 WSW 7 9 1015.3 - 0.0 - - - - - - -
19/04:30am 14.5 WSW 6 9 1015.2 - 0.0 - - - - - - -
19/04:00am 14.8 W 6 8 1015.2 - 0.0 - - - - - - -
19/03:30am 14.9 W 6 9 1015.0 - 0.0 - - - - - - -
19/03:00am 15.5 W 6 9 1014.7 - 0.0 - - - - - - -
19/02:30am 15.8 W 6 8 1015.0 - 0.0 - - - - - - -
19/02:00am 16.8 WSW 6 7 1015.0 - 0.0 - - - - - - -
19/01:30am 17.4 SSW 6 8 1015.3 - 0.0 - - - - - - -
19/01:00am 17.2 SW 6 9 1015.5 - 0.0 - - - - - - -
19/12:30am 17.5 SW 7 10 1015.6 - 0.0 - - - - - - -
19/12:00am 18.0 SW 7 9 1015.6 - 0.0 - - - - - - -
 
Date/Time
EST
Temp

°C
Wind Pressure Rain
since 9am
mm
Weather Cloud Vis
km
Sea
Height
m
Swell
Dir
 
Speed
knots
Gust
knots
hPa Trend Height
m
Period
s
Dir
18/11:30pm 17.6 SW 7 11 1015.8 - 0.0 - - - - - - -
18/11:00pm 18.1 WSW 5 6 1015.9 - 0.0 - - - - - - -
18/10:30pm 18.7 WSW 6 7 1015.9 - 0.0 - - - - - - -
18/10:00pm 18.3 W 6 8 1015.9 - 0.0 - - - - - - -
18/09:30pm 18.3 W 6 7 1015.9 - 0.0 - - - - - - -
18/09:00pm 18.9 W 4 6 1015.6 - 0.0 - - - - - - -
18/08:30pm 20.7 NNE 1 5 1015.7 - 0.0 - - - - - - -
18/08:00pm 21.5 NE 3 5 1015.4 - 0.0 - - - - - - -
18/07:30pm 21.7 E 5 7 1014.9 - 0.0 - - - - - - -
18/07:00pm 21.7 E 5 6 1014.6 - 0.0 - - - - - - -
18/06:30pm 21.7 E 5 7 1014.4 - 0.0 - - - - - - -
18/06:00pm 21.7 E 5 8 1013.9 - 0.0 - - - - - - -
18/05:30pm 21.6 E 5 8 1013.7 - 0.0 - - - - - - -
18/05:00pm 21.9 E 9 11 1013.4 - 0.0 - - - - - - -
18/04:30pm 22.1 E 8 10 1013.3 - 0.0 - - - - - - -
18/04:00pm 22.3 E 7 11 1013.2 - 0.0 - - - - - - -
18/03:30pm 22.5 E 6 8 1013.4 - 0.0 - - - - - - -
18/03:00pm 22.6 ESE 7 10 1013.3 F 0.0 Fine Clear 40 1 1.0 7 SE
18/02:30pm 23.2 ESE 8 11 1013.5 - 0.0 - - - - - - -
18/02:00pm 22.6 ESE 8 10 1013.6 - 0.0 - - - - - - -
18/01:30pm 24.7 NNW 4 9 1013.7 - 0.0 - - - - - - -
18/01:00pm 23.6 SW 4 7 1013.9 - 0.0 - - - - - - -
18/12:30pm 25.0 W 5 8 1014.5 - 0.0 - - - - - - -
18/12:00pm 25.0 NW 6 10 1014.9 - 0.0 - - - - - - -
18/11:30am 24.1 WNW 7 11 1015.7 - 0.0 - - - - - - -
18/11:00am 22.8 WSW 5 9 1016.2 - 0.0 - - - - - - -
18/10:30am 22.7 W 6 10 1016.7 - 0.0 - - - - - - -
18/10:00am 21.5 WSW 6 9 1017.1 - 0.0 - - - - - - -
18/09:30am 20.1 WSW 6 9 1017.3 - 0.0 - - - - - - -
18/09:00am 21.0 W 7 10 1017.2 F 0.0 Fine Mostly clear 40 1 1.0 7 SE
18/08:30am 19.2 WSW 5 8 1017.4 - 0.0 - - - - - - -
18/08:00am 18.8 SW 5 7 1017.4 - 0.0 - - - - - - -
18/07:30am 17.3 SW 5 9 1017.4 - 0.0 - - - - - - -
18/07:00am 16.0 WSW 5 8 1017.2 - 0.0 - - - - - - -
18/06:30am 15.4 W 5 7 1016.9 - 0.0 - - - - - - -
18/06:00am 15.1 WSW 5 8 1016.3 - 0.0 - - - - - - -
18/05:30am 15.0 W 4 6 1016.5 - 0.0 - - - - - - -
18/05:00am 15.3 WSW 5 7 1016.5 - 0.0 - - - - - - -
18/04:30am 15.4 WSW 4 7 1016.4 - 0.0 - - - - - - -
18/04:00am 15.7 SW 4 5 1016.3 - 0.0 - - - - - - -
18/03:30am 15.8 SW 4 6 1016.4 - 0.0 - - - - - - -
18/03:00am 16.0 WSW 5 7 1016.3 - 0.0 - - - - - - -
18/02:30am 16.1 WSW 4 6 1016.6 - 0.0 - - - - - - -
18/02:00am 16.4 WSW 4 6 1016.7 - 0.0 - - - - - - -
18/01:30am 17.0 SW 4 7 1016.8 - 0.0 - - - - - - -
18/01:00am 17.1 WSW 4 6 1017.1 - 0.0 - - - - - - -
18/12:30am 17.5 SW 4 6 1017.4 - 0.0 - - - - - - -
18/12:00am 17.9 WSW 4 6 1017.4 - 0.0 - - - - - - -
 
Date/Time
EST
Temp

°C
Wind Pressure Rain
since 9am
mm
Weather Cloud Vis
km
Sea
Height
m
Swell
Dir
 
Speed
knots
Gust
knots
hPa Trend Height
m
Period
s
Dir
17/11:30pm 18.7 WSW 4 6 1017.8 - 0.0 - - - - - - -
17/11:00pm 19.1 SW 5 9 1017.7 - 0.0 - - - - - - -
17/10:30pm 20.0 SW 4 6 1018.0 - 0.0 - - - - - - -
17/10:00pm 21.4 SSE 10 17 1017.8 - 0.0 - - - - - - -
17/09:30pm 21.1 S 10 16 1017.9 - 0.0 - - - - - - -
17/09:00pm 21.4 SSE 11 16 1017.5 - 0.0 - - - - - - -
17/08:30pm 21.7 SSE 13 16 1017.5 - 0.0 - - - - - - -
17/08:00pm 21.6 SSE 11 17 1017.2 - 0.0 - - - - - - -
17/07:30pm 21.7 SSE 13 19 1017.0 - 0.0 - - - - - - -
17/07:00pm 22.0 SSE 13 17 1016.5 - 0.0 - - - - - - -
17/06:30pm 21.9 SSE 11 16 1016.2 - 0.0 - - - - - - -
17/06:00pm 21.9 SE 14 19 1015.6 - 0.0 - - - - - - -
17/05:30pm 21.9 SE 14 19 1015.7 - 0.0 - - - - - - -
17/05:00pm 22.0 SSE 13 17 1015.6 - 0.0 - - - - - - -
17/04:30pm 22.2 SE 14 18 1015.4 - 0.0 - - - - - - -
17/04:00pm 22.5 SE 13 17 1015.3 - 0.0 - - - - - - -
17/03:30pm 22.7 SE 12 16 1015.3 - 0.0 - - - - - - -
17/03:00pm 22.7 SE 13 16 1015.2 F 0.0 Fine Mostly clear 40 1 1.0 7 SE
17/02:30pm 22.9 SE 11 15 1015.6 - 0.0 - - - - - - -
17/02:00pm 22.9 SE 10 13 1015.9 - 0.0 - - - - - - -
17/01:30pm 23.0 SE 11 15 1016.1 - 0.0 - - - - - - -
17/01:00pm 22.8 SE 13 16 1016.2 - 0.0 - - - - - - -
17/12:30pm 23.0 SE 12 15 1016.6 - 0.0 - - - - - - -
17/12:00pm 22.8 SE 11 13 1016.9 - 0.0 - - - - - - -
17/11:30am 23.1 SE 10 13 1017.4 - 0.0 - - - - - - -
17/11:00am 22.7 SSW 7 10 1017.8 - 0.0 - - - - - - -
17/10:30am 22.3 SW 6 11 1018.0 - 0.0 - - - - - - -
17/10:00am 21.7 WSW 7 11 1018.3 - 0.0 - - - - - - -
17/09:30am 21.0 WSW 6 11 1018.4 - 0.0 - - - - - - -
17/09:00am 19.9 WSW 6 9 1018.3 R 0.0 Fine Mostly clear 35 1 1.0 8 SE
17/08:30am 18.7 WSW 6 9 1018.4 - 0.0 - - - - - - -
17/08:00am 17.5 SW 5 11 1018.4 - 0.0 - - - - - - -
17/07:30am 16.5 SW 5 8 1018.2 - 0.0 - - - - - - -
17/07:00am 15.7 SW 6 9 1017.9 - 0.0 - - - - - - -
17/06:30am 15.1 SW 6 10 1017.5 - 0.0 - - - - - - -
17/06:00am 15.1 SW 5 8 1016.8 - 0.0 - - - - - - -
17/05:30am 15.0 SW 5 7 1016.8 - 0.0 - - - - - - -
17/05:00am 15.0 SW 4 6 1016.5 - 0.0 - - - - - - -
17/04:30am 15.5 WSW 5 8 1016.3 - 0.0 - - - - - - -
17/04:00am 15.5 SW 5 6 1016.2 - 0.0 - - - - - - -
17/03:30am 16.0 SW 5 8 1015.9 - 0.0 - - - - - - -
17/03:00am 16.1 SW 5 9 1015.7 - 0.0 - - - - - - -
17/02:30am 16.4 SW 3 6 1016.0 - 0.0 - - - - - - -
17/02:00am 16.9 SW 4 6 1016.2 - 0.0 - - - - - - -
17/01:30am 16.8 WSW 5 7 1016.3 - 0.0 - - - - - - -
17/01:00am 17.9 SSW 5 8 1016.4 - 0.0 - - - - - - -
17/12:30am 18.3 SSW 6 12 1016.6 - 0.0 - - - - - - -
17/12:00am 18.7 SSW 6 9 1016.5 - 0.0 - - - - - - -
 
Date/Time
EST
Temp

°C
Wind Pressure Rain
since 9am
mm
Weather Cloud Vis
km
Sea
Height
m
Swell
Dir
 
Speed
knots
Gust
knots
hPa Trend Height
m
Period
s
Dir
16/11:30pm 18.7 S 7 11 1016.9 - 0.0 - - - - - - -
16/11:00pm 19.0 SSW 7 10 1017.0 - 0.0 - - - - - - -
16/10:30pm 19.1 SSW 6 10 1017.1 - 0.0 - - - - - - -

Other Formats:

Comma delimited format used in spreadsheet applications
http://www.bom.gov.au/fwo/IDN60701/IDN60701.94589.axf

JavaScript Object Notation format (JSON) in row-major order
http://www.bom.gov.au/fwo/IDN60701/IDN60701.94589.json